createdAt,value
2019-05-10T16:27:41.725Z,2.50
2019-05-10T16:30:12.029Z,2.93
2019-05-10T16:32:39.286Z,2.10
2019-05-10T16:35:12.799Z,2.53
2019-05-10T16:37:39.053Z,4.13
2019-05-10T16:40:08.937Z,2.83
2019-05-10T16:42:37.378Z,4.17
2019-05-10T16:45:06.417Z,6.13
2019-05-10T16:47:38.125Z,8.43
2019-05-10T16:50:08.021Z,2.73
2019-05-10T16:52:36.773Z,2.47
2019-05-10T16:55:09.990Z,4.73
2019-05-10T16:57:39.517Z,2.57
2019-05-10T17:00:10.740Z,4.00
2019-05-10T17:02:42.070Z,3.43
2019-05-10T17:05:15.353Z,2.40
2019-05-10T17:07:46.560Z,3.77
2019-05-10T17:10:16.679Z,20.57
2019-05-10T17:12:45.467Z,3.27
2019-05-10T17:15:14.199Z,4.53
2019-05-10T17:17:44.976Z,3.37
2019-05-10T17:20:15.675Z,4.00
2019-05-10T17:22:44.022Z,3.10
2019-05-10T17:25:12.745Z,2.90
2019-05-10T17:27:41.352Z,2.93
2019-05-10T17:30:09.851Z,4.13
2019-05-10T17:32:40.136Z,3.20
2019-05-10T17:35:12.357Z,3.53
2019-05-10T17:37:40.724Z,4.73
2019-05-10T17:40:12.430Z,7.00
2019-05-10T17:42:41.762Z,2.30
2019-05-10T17:45:11.945Z,2.57
2019-05-10T17:47:40.898Z,4.40
2019-05-10T17:50:09.924Z,3.20
2019-05-10T17:52:38.437Z,2.30
2019-05-10T17:55:10.912Z,5.10
2019-05-10T17:57:39.232Z,2.40
2019-05-10T18:00:09.978Z,3.53
2019-05-10T18:02:41.339Z,2.33
2019-05-10T18:05:10.377Z,3.43
2019-05-10T18:07:40.232Z,4.60
2019-05-10T18:10:10.116Z,5.00
2019-05-10T18:12:39.365Z,3.00
2019-05-10T18:15:09.546Z,2.70
2019-05-10T18:17:38.192Z,4.10
2019-05-10T18:20:06.926Z,3.23
2019-05-10T18:22:43.692Z,4.70
2019-05-10T18:25:06.468Z,7.63
2019-05-10T18:27:34.960Z,8.13
2019-05-10T18:30:03.469Z,6.67
2019-05-10T18:32:35.377Z,5.60
2019-05-10T18:35:13.776Z,14.13
2019-05-10T18:37:36.709Z,6.97
2019-05-10T18:40:08.680Z,6.80
2019-05-10T18:42:37.525Z,6.70
2019-05-10T18:45:07.269Z,7.43
2019-05-10T18:47:37.687Z,15.57
2019-05-10T18:50:07.839Z,13.77
2019-05-10T18:52:36.632Z,14.30
2019-05-10T18:55:07.510Z,9.60
2019-05-10T18:57:37.409Z,10.80
2019-05-10T19:00:07.699Z,6.77
2019-05-10T19:02:36.956Z,8.80
2019-05-10T19:05:07.839Z,5.60
2019-05-10T19:07:36.284Z,8.00
2019-05-10T19:10:08.605Z,4.40
2019-05-10T19:12:38.640Z,6.97
2019-05-10T19:15:15.425Z,6.60
2019-05-10T19:18:04.066Z,5.97
2019-05-10T19:20:35.797Z,4.50
2019-05-10T19:23:05.655Z,8.00
2019-05-10T19:25:37.834Z,6.57
2019-05-10T19:28:08.387Z,8.93
2019-05-10T19:30:39.409Z,9.93
2019-05-10T19:33:09.360Z,7.73
2019-05-10T19:35:39.746Z,9.73
2019-05-10T19:38:10.078Z,8.30
2019-05-10T19:40:39.287Z,8.70
2019-05-10T19:43:09.475Z,7.80
2019-05-10T19:45:40.251Z,9.53
2019-05-10T19:48:10.351Z,10.33
2019-05-10T19:50:39.515Z,4.00
2019-05-10T19:53:09.781Z,5.57
2019-05-10T19:55:38.649Z,3.90
2019-05-10T19:58:08.285Z,3.60
2019-05-10T20:00:41.181Z,5.70
2019-05-10T20:03:11.057Z,3.83
2019-05-10T20:05:41.461Z,3.57
2019-05-10T20:08:09.945Z,4.97
2019-05-10T20:10:39.926Z,7.23
2019-05-10T20:13:09.731Z,4.30
2019-05-10T20:15:40.214Z,10.23
2019-05-10T20:18:10.016Z,5.33
2019-05-10T20:20:40.864Z,6.23
2019-05-10T20:23:13.477Z,14.13
2019-05-10T20:25:43.906Z,31.37
2019-05-10T20:28:13.440Z,33.20
2019-05-10T20:30:43.569Z,27.67
2019-05-10T20:33:13.825Z,17.83
2019-05-10T20:35:44.177Z,15.97
2019-05-10T20:38:12.770Z,11.90
2019-05-10T20:40:43.255Z,8.40
2019-05-10T20:43:13.271Z,10.97
2019-05-10T20:45:43.744Z,9.53
2019-05-10T20:48:12.922Z,10.80
2019-05-10T20:50:41.340Z,10.73
2019-05-10T20:53:10.614Z,12.47
2019-05-10T20:55:39.867Z,11.80
2019-05-10T20:58:10.106Z,5.30
2019-05-10T21:00:39.872Z,5.20
2019-05-10T21:03:10.249Z,9.00
2019-05-10T21:05:40.225Z,5.97
2019-05-10T21:08:17.091Z,7.90
2019-05-10T21:10:43.937Z,5.57
2019-05-10T21:13:14.055Z,6.23
2019-05-10T21:15:44.201Z,6.13
2019-05-10T21:18:13.787Z,15.57
2019-05-10T21:20:44.587Z,7.50
2019-05-10T21:23:15.107Z,5.87
2019-05-10T21:25:45.129Z,4.70
2019-05-10T21:28:15.598Z,6.70
2019-05-10T21:30:43.915Z,4.57
2019-05-10T21:33:13.196Z,5.80
2019-05-10T21:35:43.355Z,11.23
2019-05-10T21:38:13.427Z,7.97
2019-05-10T21:40:43.545Z,6.70
2019-05-10T21:43:13.756Z,9.23
2019-05-10T21:45:43.160Z,7.70
2019-05-10T21:48:13.638Z,8.00
2019-05-10T21:50:43.815Z,6.93
2019-05-10T21:53:14.329Z,7.60
2019-05-10T21:55:44.537Z,12.53
2019-05-10T21:58:14.659Z,7.50
2019-05-10T22:00:46.588Z,11.10
2019-05-10T22:03:16.673Z,7.30
2019-05-10T22:05:46.814Z,6.93
2019-05-10T22:08:16.908Z,6.00
2019-05-10T22:10:45.699Z,7.03
2019-05-10T22:13:15.801Z,6.00
2019-05-10T22:15:47.303Z,6.00
2019-05-10T22:18:17.375Z,6.10
2019-05-10T22:20:48.936Z,7.13
2019-05-10T22:23:18.772Z,5.20
2019-05-10T22:25:47.422Z,6.80
2019-05-10T22:28:17.468Z,7.00
2019-05-10T22:30:47.882Z,6.30
2019-05-10T22:33:17.991Z,6.80
2019-05-10T22:35:48.325Z,6.00
2019-05-10T22:38:18.764Z,6.33
2019-05-10T22:40:49.137Z,10.13
2019-05-10T22:43:19.110Z,6.20
2019-05-10T22:45:49.195Z,9.63
2019-05-10T22:48:19.320Z,8.97
2019-05-10T22:50:49.463Z,6.27
2019-05-10T22:53:19.472Z,8.30
2019-05-10T22:55:49.498Z,10.73
2019-05-10T22:58:19.790Z,7.20
2019-05-10T23:00:49.965Z,10.33
2019-05-10T23:03:24.109Z,5.73
2019-05-10T23:05:52.546Z,6.70
2019-05-10T23:08:22.561Z,6.73
2019-05-10T23:10:52.426Z,7.60
2019-05-10T23:13:24.782Z,8.33
2019-05-10T23:15:53.140Z,10.00
2019-05-10T23:18:21.776Z,7.07
2019-05-10T23:20:51.832Z,6.47
2019-05-10T23:23:22.197Z,7.53
2019-05-10T23:25:52.232Z,7.27
2019-05-10T23:28:22.972Z,6.83
2019-05-10T23:30:52.527Z,6.43
2019-05-10T23:33:22.851Z,9.13
2019-05-10T23:35:52.600Z,7.90
2019-05-10T23:38:22.627Z,7.80
2019-05-10T23:40:53.628Z,9.17
2019-05-10T23:43:24.062Z,6.47
2019-05-10T23:45:54.097Z,9.63
2019-05-10T23:48:24.211Z,6.90
2019-05-10T23:50:53.864Z,9.20
2019-05-10T23:53:24.305Z,6.77
2019-05-10T23:55:54.094Z,7.57
2019-05-10T23:58:24.675Z,6.20
